Time;durP1;ratioP1;P1;durP2;ratioP2;P2;SDS_P1;SDS_P2;PMS_P1;PMS_P2;Temp;Humidity;BMP_temperature;BMP_pressure;BME280_temperature;BME280_humidity;BME280_pressure;Samples;Min_cycle;Max_cycle;Signal;HPM_P1;HPM_P2
2023/10/19 00:00:19;;;;;;;;;;;16.40;99.90;;;;;;5089796;28;19912;-73
2023/10/19 00:02:46;;;;;;;;;;;16.50;99.90;;;;;;5084721;28;19912;-73
2023/10/19 00:05:14;;;;;;;;;;;16.50;99.90;;;;;;5088779;28;19912;-74
2023/10/19 00:07:40;;;;;;;;;;;16.40;99.90;;;;;;5086507;28;20276;-73
2023/10/19 00:10:06;;;;;;;;;;;16.50;99.90;;;;;;5087228;28;19981;-73
2023/10/19 00:12:32;;;;;;;;;;;16.50;99.90;;;;;;5085985;28;19909;-73
2023/10/19 00:14:57;;;;;;;;;;;16.50;99.90;;;;;;5088462;28;19912;-73
2023/10/19 00:17:26;;;;;;;;;;;16.50;99.90;;;;;;5086228;28;19960;-73
2023/10/19 00:20:18;;;;;;;;;;;16.50;99.90;;;;;;5088055;28;19908;-74
2023/10/19 00:22:44;;;;;;;;;;;16.50;99.90;;;;;;5084320;28;19916;-73
2023/10/19 00:25:13;;;;;;;;;;;16.40;99.90;;;;;;5078647;28;19915;-73
2023/10/19 00:27:39;;;;;;;;;;;16.50;99.90;;;;;;5075275;28;19924;-73
2023/10/19 00:30:08;;;;;;;;;;;16.50;99.90;;;;;;5084604;28;19912;-73
2023/10/19 00:32:38;;;;;;;;;;;16.50;99.90;;;;;;5082872;28;19916;-73
2023/10/19 00:35:10;;;;;;;;;;;16.60;99.90;;;;;;5084680;28;19912;-74
2023/10/19 00:37:42;;;;;;;;;;;16.60;99.90;;;;;;5088295;28;19908;-73
2023/10/19 00:40:15;;;;;;;;;;;16.60;99.90;;;;;;5084609;28;19908;-75
2023/10/19 00:42:46;;;;;;;;;;;16.60;99.90;;;;;;5087573;28;19912;-73
2023/10/19 00:45:13;;;;;;;;;;;16.70;99.90;;;;;;5087784;28;20443;-74
2023/10/19 00:47:42;;;;;;;;;;;16.70;99.90;;;;;;5087278;28;19920;-74
2023/10/19 00:50:15;;;;;;;;;;;16.80;99.90;;;;;;5088411;28;19919;-73
2023/10/19 00:52:46;;;;;;;;;;;16.80;99.90;;;;;;5085752;28;19914;-73
2023/10/19 00:55:13;;;;;;;;;;;16.90;99.90;;;;;;5070758;28;19962;-74
2023/10/19 00:57:42;;;;;;;;;;;16.90;99.90;;;;;;5083313;28;19913;-74
2023/10/19 01:00:21;;;;;;;;;;;16.90;99.90;;;;;;5089244;28;19908;-74
2023/10/19 01:02:51;;;;;;;;;;;17.00;99.90;;;;;;5087080;28;19912;-73
2023/10/19 01:05:21;;;;;;;;;;;17.00;99.90;;;;;;5088866;28;19994;-74
2023/10/19 01:07:53;;;;;;;;;;;17.00;99.90;;;;;;5088324;28;19943;-73
2023/10/19 01:10:20;;;;;;;;;;;17.00;99.90;;;;;;5087131;28;19913;-74
2023/10/19 01:12:46;;;;;;;;;;;17.10;99.90;;;;;;5087585;28;19915;-73
2023/10/19 01:17:57;;;;;;;;;;;17.20;99.90;;;;;;5070582;28;19946;-73
2023/10/19 01:28:28;;;;;;;;;;;17.30;99.90;;;;;;5085559;28;19977;-74
2023/10/19 01:30:53;;;;;;;;;;;17.40;99.90;;;;;;5070868;28;19916;-74
2023/10/19 01:33:20;;;;;;;;;;;17.40;99.90;;;;;;5085417;28;19939;-74
2023/10/19 01:38:33;;;;;;;;;;;17.40;99.90;;;;;;5084377;28;19930;-75
2023/10/19 01:40:59;;;;;;;;;;;17.50;99.90;;;;;;5085984;28;19912;-75
2023/10/19 01:43:31;;;;;;;;;;;17.50;99.90;;;;;;5085257;28;20045;-74
2023/10/19 01:45:57;;;;;;;;;;;17.50;99.90;;;;;;5086261;28;20560;-75
2023/10/19 01:48:32;;;;;;;;;;;17.60;99.90;;;;;;5084746;28;20283;-75
2023/10/19 01:50:58;;;;;;;;;;;17.60;99.90;;;;;;5084924;28;19912;-76
2023/10/19 01:53:25;;;;;;;;;;;17.60;99.90;;;;;;5087799;28;19916;-75
2023/10/19 01:55:57;;;;;;;;;;;17.60;99.90;;;;;;5085114;28;19913;-74
2023/10/19 01:58:25;;;;;;;;;;;17.70;99.90;;;;;;5082987;28;19952;-75
2023/10/19 02:00:54;;;;;;;;;;;17.70;99.90;;;;;;5077026;28;19913;-75
2023/10/19 02:03:21;;;;;;;;;;;17.70;99.90;;;;;;5069763;28;19946;-75
2023/10/19 02:05:49;;;;;;;;;;;17.60;99.90;;;;;;5082536;28;19909;-75
2023/10/19 02:08:16;;;;;;;;;;;17.60;99.90;;;;;;5090088;28;19912;-75
2023/10/19 02:10:46;;;;;;;;;;;17.60;99.90;;;;;;5087308;28;19912;-76
2023/10/19 02:13:15;;;;;;;;;;;17.60;99.90;;;;;;5094002;28;19908;-76
2023/10/19 02:15:42;;;;;;;;;;;17.60;99.90;;;;;;5089225;28;19908;-74
2023/10/19 02:18:08;;;;;;;;;;;17.60;99.90;;;;;;5093005;28;20003;-74
2023/10/19 02:20:34;;;;;;;;;;;17.60;99.90;;;;;;5074312;28;19912;-75
2023/10/19 02:23:03;;;;;;;;;;;17.60;99.90;;;;;;5093077;28;19942;-74
2023/10/19 02:25:33;;;;;;;;;;;17.60;99.90;;;;;;5089952;28;19919;-75
2023/10/19 02:27:59;;;;;;;;;;;17.60;99.90;;;;;;5090967;28;20360;-75
2023/10/19 02:30:24;;;;;;;;;;;17.60;99.90;;;;;;5090249;28;19912;-75
2023/10/19 02:32:50;;;;;;;;;;;17.70;99.90;;;;;;5091838;28;19947;-74
2023/10/19 02:35:16;;;;;;;;;;;17.70;99.90;;;;;;5089316;28;19961;-74
2023/10/19 02:37:41;;;;;;;;;;;17.70;99.90;;;;;;5091513;28;20375;-74
2023/10/19 02:40:19;;;;;;;;;;;17.70;99.90;;;;;;5088654;28;20509;-74
2023/10/19 02:42:47;;;;;;;;;;;17.70;99.90;;;;;;5089960;28;19919;-74
2023/10/19 02:45:15;;;;;;;;;;;17.70;99.90;;;;;;5090015;28;19919;-74
2023/10/19 02:47:42;;;;;;;;;;;17.70;99.90;;;;;;5088675;28;19909;-74
2023/10/19 02:50:11;;;;;;;;;;;17.60;99.90;;;;;;5088575;28;19916;-75
2023/10/19 02:52:37;;;;;;;;;;;17.60;99.90;;;;;;5086385;28;20348;-74
2023/10/19 02:55:04;;;;;;;;;;;17.70;99.90;;;;;;5090721;28;19923;-76
2023/10/19 02:57:31;;;;;;;;;;;17.70;99.90;;;;;;5087034;28;19935;-74
2023/10/19 02:59:58;;;;;;;;;;;17.80;99.90;;;;;;5090180;28;20392;-74
2023/10/19 03:02:25;;;;;;;;;;;17.90;99.90;;;;;;5079796;28;19920;-77
2023/10/19 03:04:52;;;;;;;;;;;18.00;99.90;;;;;;5085699;28;19948;-75
2023/10/19 03:07:18;;;;;;;;;;;18.10;99.90;;;;;;5085736;28;19956;-75
2023/10/19 03:09:53;;;;;;;;;;;18.10;99.90;;;;;;5091042;28;19930;-75
2023/10/19 03:12:19;;;;;;;;;;;18.10;99.90;;;;;;5085528;28;19947;-76
2023/10/19 03:14:48;;;;;;;;;;;18.30;99.90;;;;;;5089855;28;20574;-77
2023/10/19 03:17:14;;;;;;;;;;;18.30;99.90;;;;;;5085885;28;19912;-77
2023/10/19 03:19:40;;;;;;;;;;;18.30;99.90;;;;;;5090779;28;19908;-76
2023/10/19 03:22:09;;;;;;;;;;;18.30;99.90;;;;;;5085317;28;19999;-75
2023/10/19 03:24:43;;;;;;;;;;;18.40;99.90;;;;;;5089947;28;19975;-76
2023/10/19 03:29:46;;;;;;;;;;;18.40;99.90;;;;;;5088297;28;20327;-75
2023/10/19 03:32:12;;;;;;;;;;;18.40;99.90;;;;;;5088956;28;19931;-79
2023/10/19 03:34:38;;;;;;;;;;;18.50;99.90;;;;;;5088263;28;19909;-78
2023/10/19 03:37:09;;;;;;;;;;;18.50;99.90;;;;;;5088869;28;19916;-77
2023/10/19 03:39:37;;;;;;;;;;;18.50;99.90;;;;;;5087317;28;19908;-76
2023/10/19 03:42:05;;;;;;;;;;;18.50;99.90;;;;;;5083382;28;20123;-77
2023/10/19 03:44:44;;;;;;;;;;;18.50;99.90;;;;;;5084792;28;19917;-75
2023/10/19 03:47:19;;;;;;;;;;;18.50;99.90;;;;;;5071444;28;19990;-77
2023/10/19 03:49:46;;;;;;;;;;;18.50;99.90;;;;;;5086198;28;19909;-75
2023/10/19 03:54:41;;;;;;;;;;;18.50;99.90;;;;;;5086868;28;19909;-75
2023/10/19 03:57:11;;;;;;;;;;;18.50;99.90;;;;;;5090517;28;20391;-75
2023/10/19 03:59:41;;;;;;;;;;;18.40;99.90;;;;;;5087961;28;19927;-75
2023/10/19 04:02:13;;;;;;;;;;;18.40;99.90;;;;;;5088761;28;19913;-75
2023/10/19 04:04:43;;;;;;;;;;;18.30;99.90;;;;;;5087734;28;19962;-76
2023/10/19 04:07:21;;;;;;;;;;;18.40;99.90;;;;;;5086086;28;19908;-75
2023/10/19 04:12:45;;;;;;;;;;;18.30;99.90;;;;;;5080353;28;19912;-77
2023/10/19 04:15:17;;;;;;;;;;;18.40;99.90;;;;;;5088247;28;19916;-75
2023/10/19 04:17:44;;;;;;;;;;;18.30;99.90;;;;;;5089754;28;19912;-76
2023/10/19 04:20:26;;;;;;;;;;;18.40;99.90;;;;;;5085810;28;19920;-79
2023/10/19 04:22:53;;;;;;;;;;;18.30;99.90;;;;;;5072491;28;19922;-76
2023/10/19 04:25:19;;;;;;;;;;;18.40;99.90;;;;;;5085680;28;19913;-74
2023/10/19 04:27:45;;;;;;;;;;;18.30;99.90;;;;;;5090001;28;20407;-77
2023/10/19 04:30:21;;;;;;;;;;;18.30;99.90;;;;;;5086389;28;19913;-76
2023/10/19 04:32:47;;;;;;;;;;;18.30;99.90;;;;;;5089266;28;19912;-77
2023/10/19 04:35:14;;;;;;;;;;;18.30;99.90;;;;;;5085273;28;19995;-75
2023/10/19 04:37:42;;;;;;;;;;;18.20;99.90;;;;;;5089522;28;19912;-75
2023/10/19 04:40:08;;;;;;;;;;;18.20;99.90;;;;;;5086546;28;19924;-75
2023/10/19 04:42:34;;;;;;;;;;;18.30;99.90;;;;;;5088223;28;19930;-76
2023/10/19 04:44:59;;;;;;;;;;;18.20;99.90;;;;;;5086890;28;20391;-75
2023/10/19 04:47:25;;;;;;;;;;;18.10;99.90;;;;;;5089239;28;20376;-76
2023/10/19 04:49:51;;;;;;;;;;;18.00;99.90;;;;;;5086383;28;20372;-76
2023/10/19 04:52:17;;;;;;;;;;;18.10;99.90;;;;;;5088861;28;19915;-76
2023/10/19 04:54:42;;;;;;;;;;;18.10;99.90;;;;;;5086664;28;19908;-76
2023/10/19 04:57:08;;;;;;;;;;;18.10;99.90;;;;;;5087365;28;19912;-76
2023/10/19 04:59:33;;;;;;;;;;;18.10;99.90;;;;;;5079358;28;19927;-76
2023/10/19 05:02:01;;;;;;;;;;;18.10;99.90;;;;;;5089094;28;19915;-76
2023/10/19 05:04:29;;;;;;;;;;;18.10;99.90;;;;;;5085353;28;19912;-75
2023/10/19 05:06:55;;;;;;;;;;;18.10;99.90;;;;;;5088283;28;20342;-76
2023/10/19 05:09:20;;;;;;;;;;;18.10;99.90;;;;;;5087101;28;20057;-75
2023/10/19 05:11:46;;;;;;;;;;;18.00;99.90;;;;;;5087886;28;19966;-75
2023/10/19 05:14:15;;;;;;;;;;;18.10;99.90;;;;;;5087460;28;19908;-75
2023/10/19 05:16:40;;;;;;;;;;;18.10;99.90;;;;;;5087490;28;20012;-76
2023/10/19 05:19:06;;;;;;;;;;;18.20;99.90;;;;;;5087327;28;19955;-76
2023/10/19 05:21:31;;;;;;;;;;;18.20;99.90;;;;;;5085732;28;20400;-76
2023/10/19 05:24:00;;;;;;;;;;;18.20;99.90;;;;;;5087544;28;19920;-76
2023/10/19 05:26:26;;;;;;;;;;;18.20;99.90;;;;;;5087142;28;19908;-80
2023/10/19 05:28:51;;;;;;;;;;;18.20;99.90;;;;;;5083101;28;19924;-77
2023/10/19 05:31:17;;;;;;;;;;;18.20;99.90;;;;;;5077373;28;19920;-76
2023/10/19 05:33:42;;;;;;;;;;;18.20;99.90;;;;;;5087551;28;19916;-79
2023/10/19 05:36:08;;;;;;;;;;;18.10;99.90;;;;;;5088781;28;20002;-76
2023/10/19 05:38:34;;;;;;;;;;;18.10;99.90;;;;;;5087082;28;20406;-75
2023/10/19 05:41:00;;;;;;;;;;;18.10;99.90;;;;;;5080554;28;19959;-75
2023/10/19 05:43:26;;;;;;;;;;;18.00;99.90;;;;;;5075862;28;19909;-75
2023/10/19 05:45:51;;;;;;;;;;;17.90;99.90;;;;;;5083410;28;19908;-76
2023/10/19 05:48:17;;;;;;;;;;;17.90;99.90;;;;;;5073277;28;19959;-75
2023/10/19 05:50:43;;;;;;;;;;;17.80;99.90;;;;;;5086262;28;19923;-77
2023/10/19 05:53:08;;;;;;;;;;;17.80;99.90;;;;;;5082031;28;20498;-75
2023/10/19 05:55:35;;;;;;;;;;;17.70;99.90;;;;;;5081384;28;19912;-75
2023/10/19 05:58:01;;;;;;;;;;;17.60;99.90;;;;;;5078418;28;19915;-75
2023/10/19 06:00:26;;;;;;;;;;;17.60;99.90;;;;;;5080125;28;19908;-76
2023/10/19 06:02:52;;;;;;;;;;;17.60;99.90;;;;;;5077739;28;19912;-76
2023/10/19 06:05:18;;;;;;;;;;;17.60;99.90;;;;;;5077492;28;19943;-75
2023/10/19 06:07:48;;;;;;;;;;;17.60;99.90;;;;;;5067252;28;19913;-74
2023/10/19 06:10:18;;;;;;;;;;;17.60;99.90;;;;;;5083147;28;19920;-75
2023/10/19 06:12:44;;;;;;;;;;;17.50;99.90;;;;;;5087431;28;19912;-74
2023/10/19 06:15:10;;;;;;;;;;;17.50;99.90;;;;;;5075489;28;19939;-76
2023/10/19 06:17:39;;;;;;;;;;;17.50;99.90;;;;;;5086058;28;19908;-74
2023/10/19 06:20:19;;;;;;;;;;;17.50;99.90;;;;;;5085592;28;19919;-74
2023/10/19 06:22:51;;;;;;;;;;;17.50;99.90;;;;;;5068745;28;19916;-74
2023/10/19 06:25:21;;;;;;;;;;;17.50;99.90;;;;;;5084294;28;19909;-75
2023/10/19 06:27:47;;;;;;;;;;;17.50;99.90;;;;;;5088606;28;19920;-75
2023/10/19 06:30:17;;;;;;;;;;;17.50;99.90;;;;;;5084638;28;20369;-75
2023/10/19 06:32:44;;;;;;;;;;;17.50;99.90;;;;;;5089949;28;19908;-76
2023/10/19 06:35:11;;;;;;;;;;;17.50;99.90;;;;;;5083993;28;19908;-76
2023/10/19 06:37:36;;;;;;;;;;;17.50;99.90;;;;;;5092420;28;19958;-76
2023/10/19 06:40:02;;;;;;;;;;;17.50;99.90;;;;;;5087178;28;19908;-76
2023/10/19 06:42:28;;;;;;;;;;;17.50;99.90;;;;;;5081534;28;19909;-76
2023/10/19 06:44:55;;;;;;;;;;;17.60;99.90;;;;;;5078368;28;19955;-75
2023/10/19 06:47:22;;;;;;;;;;;17.70;99.90;;;;;;5070773;28;19966;-79
2023/10/19 06:49:48;;;;;;;;;;;17.80;99.90;;;;;;5093497;28;20006;-75
2023/10/19 06:52:15;;;;;;;;;;;17.90;99.90;;;;;;5093852;28;19955;-77
2023/10/19 06:54:41;;;;;;;;;;;17.90;99.90;;;;;;5095056;28;20440;-76
2023/10/19 06:57:08;;;;;;;;;;;18.00;99.90;;;;;;5097182;28;20337;-74
2023/10/19 06:59:34;;;;;;;;;;;18.00;99.90;;;;;;5098165;28;19912;-75
2023/10/19 07:02:01;;;;;;;;;;;18.10;99.90;;;;;;5083851;28;19916;-76
2023/10/19 07:04:27;;;;;;;;;;;18.10;99.90;;;;;;5091787;28;19916;-76
2023/10/19 07:06:53;;;;;;;;;;;18.10;99.90;;;;;;5089020;28;20273;-75
2023/10/19 07:09:19;;;;;;;;;;;18.10;99.90;;;;;;5084826;28;19915;-75
2023/10/19 07:11:44;;;;;;;;;;;18.20;99.90;;;;;;5080607;28;20002;-74
2023/10/19 07:14:12;;;;;;;;;;;18.20;99.90;;;;;;5087749;28;19948;-73
2023/10/19 07:16:39;;;;;;;;;;;18.20;99.90;;;;;;5088245;28;19908;-74
2023/10/19 07:19:05;;;;;;;;;;;18.30;99.90;;;;;;5088195;28;19912;-74
2023/10/19 07:21:35;;;;;;;;;;;18.30;99.90;;;;;;5088640;28;19995;-76
2023/10/19 07:24:05;;;;;;;;;;;18.40;99.90;;;;;;5082198;28;19913;-74
2023/10/19 07:26:33;;;;;;;;;;;18.40;99.90;;;;;;5068883;28;19912;-74
2023/10/19 07:28:59;;;;;;;;;;;18.40;99.90;;;;;;5081952;28;20277;-73
2023/10/19 07:31:27;;;;;;;;;;;18.40;99.90;;;;;;5084226;28;19920;-74
2023/10/19 07:33:58;;;;;;;;;;;18.50;99.90;;;;;;5081016;28;19923;-75
2023/10/19 07:36:25;;;;;;;;;;;18.50;99.90;;;;;;5083418;28;19918;-74
2023/10/19 07:38:51;;;;;;;;;;;18.60;99.90;;;;;;5089912;28;19962;-75
2023/10/19 07:41:17;;;;;;;;;;;18.60;99.90;;;;;;5087953;28;19913;-74
2023/10/19 07:43:44;;;;;;;;;;;18.70;99.90;;;;;;5086558;28;19970;-74
2023/10/19 07:46:11;;;;;;;;;;;18.70;99.90;;;;;;5083065;28;19916;-73
2023/10/19 07:48:38;;;;;;;;;;;18.80;99.90;;;;;;5092363;28;19912;-73
2023/10/19 07:51:03;;;;;;;;;;;18.80;99.90;;;;;;5088405;28;20003;-73
2023/10/19 07:53:30;;;;;;;;;;;18.90;99.90;;;;;;5093455;28;19931;-75
2023/10/19 07:55:57;;;;;;;;;;;18.90;99.90;;;;;;5086103;28;19952;-75
2023/10/19 07:58:22;;;;;;;;;;;18.90;99.90;;;;;;5085666;28;20354;-73
2023/10/19 08:00:48;;;;;;;;;;;18.90;99.90;;;;;;5083590;28;19975;-73
2023/10/19 08:03:15;;;;;;;;;;;18.90;99.90;;;;;;5087442;28;19913;-73
2023/10/19 08:05:41;;;;;;;;;;;18.90;99.90;;;;;;5072980;28;19916;-74
2023/10/19 08:08:07;;;;;;;;;;;18.90;99.90;;;;;;5079265;28;19916;-75
2023/10/19 08:10:34;;;;;;;;;;;18.90;99.90;;;;;;5077067;28;19916;-73
2023/10/19 08:13:00;;;;;;;;;;;18.90;99.90;;;;;;5077826;28;19908;-73
2023/10/19 08:15:26;;;;;;;;;;;19.10;99.90;;;;;;5077723;28;20003;-73
2023/10/19 08:17:53;;;;;;;;;;;19.20;99.90;;;;;;5080281;28;19969;-73
2023/10/19 08:20:31;;;;;;;;;;;19.30;99.90;;;;;;5079673;28;19912;-74
2023/10/19 08:22:57;;;;;;;;;;;19.40;99.90;;;;;;5075133;28;19957;-73
2023/10/19 08:25:23;;;;;;;;;;;19.50;99.90;;;;;;5081756;28;19931;-73
2023/10/19 08:27:50;;;;;;;;;;;19.50;99.90;;;;;;5077754;28;19924;-73
2023/10/19 08:30:20;;;;;;;;;;;19.50;99.90;;;;;;5080436;28;19989;-74
2023/10/19 08:32:49;;;;;;;;;;;19.50;99.90;;;;;;5079081;28;19916;-74
2023/10/19 08:35:18;;;;;;;;;;;19.50;99.90;;;;;;5078855;28;20003;-74
2023/10/19 08:37:45;;;;;;;;;;;19.50;99.90;;;;;;5077276;28;20004;-74
2023/10/19 08:40:14;;;;;;;;;;;19.40;99.90;;;;;;5078141;28;19935;-73
2023/10/19 08:42:50;;;;;;;;;;;19.40;99.90;;;;;;5079107;28;19917;-74
2023/10/19 08:45:16;;;;;;;;;;;19.20;99.90;;;;;;5074902;28;19908;-73
2023/10/19 08:47:57;;;;;;;;;;;19.20;99.90;;;;;;5079642;28;19915;-76
2023/10/19 08:50:24;;;;;;;;;;;19.20;99.90;;;;;;5081362;28;19947;-73
2023/10/19 08:52:52;;;;;;;;;;;19.10;99.90;;;;;;5077282;28;19955;-73
2023/10/19 08:55:17;;;;;;;;;;;19.10;99.90;;;;;;5073702;28;19919;-73
2023/10/19 08:57:43;;;;;;;;;;;19.10;99.90;;;;;;5079731;28;19916;-76
2023/10/19 09:00:09;;;;;;;;;;;19.10;99.90;;;;;;5077875;28;20321;-74
2023/10/19 09:02:35;;;;;;;;;;;19.10;99.90;;;;;;5074425;28;20383;-74
2023/10/19 09:05:06;;;;;;;;;;;19.10;99.90;;;;;;5079675;28;19932;-75
2023/10/19 09:07:34;;;;;;;;;;;19.10;99.90;;;;;;5079176;28;19931;-73
2023/10/19 09:10:01;;;;;;;;;;;19.10;99.90;;;;;;5076369;28;19944;-74
2023/10/19 09:12:26;;;;;;;;;;;19.10;99.90;;;;;;5075985;28;19913;-74
2023/10/19 09:14:52;;;;;;;;;;;19.10;99.90;;;;;;5078487;28;19916;-74
2023/10/19 09:17:28;;;;;;;;;;;19.10;99.90;;;;;;5079758;28;19915;-73
2023/10/19 09:19:54;;;;;;;;;;;19.20;99.90;;;;;;5076891;28;19924;-74
2023/10/19 09:22:22;;;;;;;;;;;19.20;99.90;;;;;;5076720;28;19919;-74
2023/10/19 09:24:49;;;;;;;;;;;19.30;99.90;;;;;;5075251;28;20422;-73
2023/10/19 09:27:19;;;;;;;;;;;19.40;99.90;;;;;;5077473;28;19924;-74
2023/10/19 09:29:45;;;;;;;;;;;19.50;99.90;;;;;;5079397;28;19908;-74
2023/10/19 09:32:13;;;;;;;;;;;19.50;99.90;;;;;;5078705;28;20418;-74
2023/10/19 09:34:40;;;;;;;;;;;19.50;99.90;;;;;;5078736;28;20583;-75
2023/10/19 09:37:06;;;;;;;;;;;19.50;99.90;;;;;;5074401;28;20360;-74
2023/10/19 09:39:35;;;;;;;;;;;19.40;99.90;;;;;;5081229;28;20296;-74
2023/10/19 09:42:10;;;;;;;;;;;19.40;99.90;;;;;;5072773;28;19956;-73
2023/10/19 09:44:41;;;;;;;;;;;19.30;99.90;;;;;;5072084;28;19919;-73
2023/10/19 09:47:12;;;;;;;;;;;19.30;99.90;;;;;;5075541;28;19912;-73
2023/10/19 09:49:38;;;;;;;;;;;19.20;99.90;;;;;;5075851;28;19958;-76
2023/10/19 09:52:04;;;;;;;;;;;19.10;99.90;;;;;;5076318;28;19926;-74
2023/10/19 09:54:51;;;;;;;;;;;19.10;99.90;;;;;;5078731;28;19958;-75
2023/10/19 09:57:19;;;;;;;;;;;19.20;99.90;;;;;;5076997;28;19934;-76
2023/10/19 09:59:47;;;;;;;;;;;19.10;99.90;;;;;;5075661;28;19923;-76
2023/10/19 10:02:13;;;;;;;;;;;19.10;99.90;;;;;;5079632;28;19925;-74
2023/10/19 10:04:40;;;;;;;;;;;19.20;99.90;;;;;;5076523;28;19940;-75
2023/10/19 10:07:06;;;;;;;;;;;19.20;99.90;;;;;;5077127;28;19999;-74
2023/10/19 10:09:46;;;;;;;;;;;19.30;99.90;;;;;;5075097;28;19908;-75
2023/10/19 10:12:23;;;;;;;;;;;19.30;99.90;;;;;;5074504;28;19995;-74
2023/10/19 10:15:10;;;;;;;;;;;19.40;99.90;;;;;;5077499;28;19915;-74
2023/10/19 10:17:38;;;;;;;;;;;19.40;99.90;;;;;;5085953;28;19916;-74
2023/10/19 10:20:13;;;;;;;;;;;19.50;99.90;;;;;;5077796;28;19999;-74
2023/10/19 10:22:39;;;;;;;;;;;19.60;99.90;;;;;;5075351;28;20034;-75
2023/10/19 10:25:05;;;;;;;;;;;19.60;99.90;;;;;;5074663;28;20384;-75
2023/10/19 10:27:30;;;;;;;;;;;19.70;99.90;;;;;;5078453;28;19977;-74
2023/10/19 10:30:01;;;;;;;;;;;19.80;99.90;;;;;;5075034;28;19919;-74
2023/10/19 10:32:47;;;;;;;;;;;19.90;99.90;;;;;;5086934;28;19922;-76
2023/10/19 10:35:32;;;;;;;;;;;19.90;99.90;;;;;;5076890;28;20003;-77
2023/10/19 10:37:58;;;;;;;;;;;20.00;99.90;;;;;;5078540;28;20046;-75
2023/10/19 10:40:25;;;;;;;;;;;20.10;99.90;;;;;;5081197;28;19962;-75
2023/10/19 10:43:04;;;;;;;;;;;20.20;99.90;;;;;;5080014;28;19931;-75
2023/10/19 10:45:30;;;;;;;;;;;20.30;99.90;;;;;;5079727;28;19908;-74
2023/10/19 10:47:56;;;;;;;;;;;20.50;99.90;;;;;;5080983;28;19920;-75
2023/10/19 10:50:21;;;;;;;;;;;20.50;99.90;;;;;;5081778;28;19917;-74
2023/10/19 10:52:48;;;;;;;;;;;20.40;99.90;;;;;;5078938;28;19916;-74
2023/10/19 10:55:14;;;;;;;;;;;20.50;99.90;;;;;;5080540;28;19909;-74
2023/10/19 10:57:40;;;;;;;;;;;20.80;99.90;;;;;;5078833;28;20372;-75
2023/10/19 11:00:14;;;;;;;;;;;21.00;99.90;;;;;;5080384;28;19920;-75
2023/10/19 11:02:42;;;;;;;;;;;21.30;99.90;;;;;;5077305;28;19908;-73
2023/10/19 11:05:11;;;;;;;;;;;21.50;99.90;;;;;;5079188;28;19920;-74
2023/10/19 11:07:37;;;;;;;;;;;21.70;99.90;;;;;;5081791;28;20054;-75
2023/10/19 11:10:03;;;;;;;;;;;22.00;99.90;;;;;;5080307;28;19916;-75
2023/10/19 11:12:29;;;;;;;;;;;22.20;99.90;;;;;;5079882;28;19909;-77
2023/10/19 11:14:55;;;;;;;;;;;22.10;99.90;;;;;;5078268;28;19915;-74
2023/10/19 11:17:27;;;;;;;;;;;21.90;99.90;;;;;;5080493;28;19982;-76
2023/10/19 11:19:56;;;;;;;;;;;22.00;99.90;;;;;;5080388;28;20400;-75
2023/10/19 11:22:21;;;;;;;;;;;21.90;99.90;;;;;;5078550;28;20341;-74
2023/10/19 11:24:47;;;;;;;;;;;22.00;99.90;;;;;;5080814;28;19955;-75
2023/10/19 11:27:12;;;;;;;;;;;22.30;99.90;;;;;;5078846;28;20027;-74
2023/10/19 11:29:38;;;;;;;;;;;22.30;99.90;;;;;;5080567;28;19919;-75
2023/10/19 11:32:04;;;;;;;;;;;22.40;99.90;;;;;;5081673;28;19922;-74
2023/10/19 11:34:29;;;;;;;;;;;22.40;99.90;;;;;;5076202;28;19915;-74
2023/10/19 11:36:59;;;;;;;;;;;22.60;99.90;;;;;;5084034;28;19909;-76
2023/10/19 11:39:28;;;;;;;;;;;22.60;99.90;;;;;;5079133;28;19915;-74
2023/10/19 11:41:54;;;;;;;;;;;22.50;99.90;;;;;;5081149;28;19916;-76
2023/10/19 11:44:19;;;;;;;;;;;22.50;99.90;;;;;;5078688;28;19943;-76
2023/10/19 11:46:45;;;;;;;;;;;22.40;99.90;;;;;;5088824;28;19980;-76
2023/10/19 11:49:11;;;;;;;;;;;22.50;99.90;;;;;;5084496;28;19955;-75
2023/10/19 11:51:37;;;;;;;;;;;22.50;99.90;;;;;;5078519;28;19913;-74
2023/10/19 11:54:06;;;;;;;;;;;22.50;99.90;;;;;;5080342;28;19965;-75
2023/10/19 11:56:31;;;;;;;;;;;22.40;99.90;;;;;;5083201;28;19913;-78
2023/10/19 11:58:57;;;;;;;;;;;22.50;99.90;;;;;;5078555;28;19916;-76
2023/10/19 12:01:24;;;;;;;;;;;22.50;99.90;;;;;;5076890;28;20336;-75
2023/10/19 12:03:51;;;;;;;;;;;22.60;99.90;;;;;;5076774;28;19915;-75
2023/10/19 12:06:19;;;;;;;;;;;22.60;99.90;;;;;;5072444;28;19908;-75
2023/10/19 12:08:45;;;;;;;;;;;22.70;99.90;;;;;;5073845;28;19912;-74
2023/10/19 12:11:18;;;;;;;;;;;22.80;99.90;;;;;;5078035;28;19920;-76
2023/10/19 12:13:44;;;;;;;;;;;22.80;99.90;;;;;;5077022;28;19921;-78
2023/10/19 12:16:15;;;;;;;;;;;22.70;99.90;;;;;;5077290;28;19912;-77
2023/10/19 12:18:42;;;;;;;;;;;22.70;99.90;;;;;;5071649;28;20335;-79
2023/10/19 12:21:11;;;;;;;;;;;22.60;99.90;;;;;;5082597;28;19909;-75
2023/10/19 12:23:40;;;;;;;;;;;22.70;99.90;;;;;;5078021;28;19923;-77
2023/10/19 12:26:11;;;;;;;;;;;22.60;99.90;;;;;;5077496;28;19980;-76
2023/10/19 12:28:38;;;;;;;;;;;22.60;99.90;;;;;;5079145;28;19968;-77
2023/10/19 12:31:05;;;;;;;;;;;22.60;99.90;;;;;;5073782;28;19935;-77
2023/10/19 12:33:30;;;;;;;;;;;22.60;99.90;;;;;;5079114;28;19924;-76
2023/10/19 12:35:59;;;;;;;;;;;22.60;99.90;;;;;;5074402;28;20372;-77
2023/10/19 12:38:25;;;;;;;;;;;22.60;99.90;;;;;;5079999;28;19918;-77
2023/10/19 12:40:51;;;;;;;;;;;22.60;99.90;;;;;;5078781;28;21504;-76
2023/10/19 12:43:22;;;;;;;;;;;22.60;99.90;;;;;;5072410;28;19913;-74
2023/10/19 12:45:53;;;;;;;;;;;22.70;99.90;;;;;;5076588;28;19917;-77
2023/10/19 12:48:20;;;;;;;;;;;22.60;99.90;;;;;;5080772;28;20296;-77
2023/10/19 12:50:46;;;;;;;;;;;22.50;99.90;;;;;;5075726;28;19920;-78
2023/10/19 12:53:11;;;;;;;;;;;22.50;99.90;;;;;;5078698;28;19908;-75
2023/10/19 12:55:37;;;;;;;;;;;22.50;99.90;;;;;;5077970;28;19955;-76
2023/10/19 12:58:10;;;;;;;;;;;22.20;99.90;;;;;;5076913;28;19915;-75
2023/10/19 13:00:36;;;;;;;;;;;22.10;99.90;;;;;;5078032;28;19917;-75
2023/10/19 13:03:03;;;;;;;;;;;22.00;99.90;;;;;;5079374;28;20057;-77
2023/10/19 13:05:35;;;;;;;;;;;21.90;99.90;;;;;;5078146;28;20354;-77
2023/10/19 13:08:01;;;;;;;;;;;21.80;99.90;;;;;;5077650;28;19912;-76
2023/10/19 13:10:34;;;;;;;;;;;21.80;99.90;;;;;;5079622;28;20603;-76
2023/10/19 13:13:03;;;;;;;;;;;21.90;99.90;;;;;;5081887;28;19999;-75
2023/10/19 13:15:34;;;;;;;;;;;21.90;99.90;;;;;;5074421;28;19908;-78
2023/10/19 13:18:03;;;;;;;;;;;21.90;99.90;;;;;;5076440;28;19908;-76
2023/10/19 13:20:35;;;;;;;;;;;21.90;99.90;;;;;;5075637;28;19915;-76
2023/10/19 13:23:11;;;;;;;;;;;21.80;99.90;;;;;;5080051;28;19909;-76
2023/10/19 13:28:22;;;;;;;;;;;21.90;99.90;;;;;;5079268;28;20292;-76
2023/10/19 13:30:48;;;;;;;;;;;21.90;99.90;;;;;;5079777;28;19944;-76
2023/10/19 13:33:16;;;;;;;;;;;21.90;99.90;;;;;;5074143;28;22834;-75
2023/10/19 13:35:42;;;;;;;;;;;21.90;99.90;;;;;;5078036;28;19955;-75
2023/10/19 13:38:08;;;;;;;;;;;21.80;99.90;;;;;;5077480;28;19962;-75
2023/10/19 13:40:34;;;;;;;;;;;21.70;99.90;;;;;;5077066;28;20400;-75
2023/10/19 13:43:00;;;;;;;;;;;21.60;99.90;;;;;;5077328;28;19924;-76
2023/10/19 13:45:26;;;;;;;;;;;21.60;99.90;;;;;;5078678;28;20395;-75
2023/10/19 13:47:54;;;;;;;;;;;21.50;99.90;;;;;;5080846;28;19912;-75
2023/10/19 13:50:23;;;;;;;;;;;21.50;99.90;;;;;;5076383;28;19957;-77
2023/10/19 13:52:50;;;;;;;;;;;21.50;99.90;;;;;;5074920;28;20007;-77
2023/10/19 13:55:18;;;;;;;;;;;21.30;99.90;;;;;;5079180;28;19942;-76
2023/10/19 13:57:47;;;;;;;;;;;21.20;99.90;;;;;;5077440;28;20489;-75
2023/10/19 14:00:19;;;;;;;;;;;21.20;99.90;;;;;;5076348;28;19999;-76
2023/10/19 14:02:46;;;;;;;;;;;21.10;99.90;;;;;;5078706;28;19912;-76
2023/10/19 14:05:12;;;;;;;;;;;21.10;99.90;;;;;;5075181;28;20028;-76
2023/10/19 14:07:39;;;;;;;;;;;20.90;99.90;;;;;;5078652;28;19944;-74
2023/10/19 14:10:06;;;;;;;;;;;20.90;99.90;;;;;;5078893;28;19909;-76
2023/10/19 14:12:32;;;;;;;;;;;20.90;99.90;;;;;;5075421;28;19919;-76
2023/10/19 14:14:58;;;;;;;;;;;20.90;99.90;;;;;;5073870;28;20445;-75
2023/10/19 14:17:23;;;;;;;;;;;20.90;99.90;;;;;;5084323;28;20711;-78
2023/10/19 14:19:49;;;;;;;;;;;20.90;99.90;;;;;;5075424;28;19991;-79
2023/10/19 14:22:15;;;;;;;;;;;20.90;99.90;;;;;;5077339;28;19908;-78
2023/10/19 14:24:41;;;;;;;;;;;20.90;99.90;;;;;;5074968;28;19908;-78
2023/10/19 14:27:08;;;;;;;;;;;20.90;99.90;;;;;;5070949;28;19917;-78
2023/10/19 14:29:34;;;;;;;;;;;20.90;99.90;;;;;;5078194;28;19917;-77
2023/10/19 14:32:00;;;;;;;;;;;20.80;99.90;;;;;;5079845;28;19958;-77
2023/10/19 14:34:26;;;;;;;;;;;20.90;99.90;;;;;;5075382;28;19966;-80
2023/10/19 14:36:52;;;;;;;;;;;20.80;99.90;;;;;;5082251;28;19959;-77
2023/10/19 14:39:20;;;;;;;;;;;20.90;99.90;;;;;;5081090;28;19912;-81
2023/10/19 14:41:45;;;;;;;;;;;20.80;99.90;;;;;;5078238;28;19940;-78
2023/10/19 14:44:11;;;;;;;;;;;20.70;99.90;;;;;;5076076;28;20322;-79